Time;durP1;ratioP1;P1;durP2;ratioP2;P2;SDS_P1;SDS_P2;PMS_P1;PMS_P2;Temp;Humidity;BMP_temperature;BMP_pressure;BME280_temperature;BME280_humidity;BME280_pressure;Samples;Min_cycle;Max_cycle;Signal;HPM_P1;HPM_P2
2021/09/07 00:00:46;;;;;;;16.10;13.00;;;16.40;99.90;;;;;;5034044;28;20206;-87
2021/09/07 00:03:13;;;;;;;15.93;12.77;;;16.40;99.90;;;;;;5034097;28;20207;-88
2021/09/07 00:05:41;;;;;;;15.02;13.13;;;16.30;99.90;;;;;;5033269;28;20203;-87
2021/09/07 00:08:08;;;;;;;16.02;13.35;;;16.30;99.90;;;;;;5033862;28;20214;-86
2021/09/07 00:10:35;;;;;;;15.85;13.50;;;16.30;99.90;;;;;;5032779;28;20230;-83
2021/09/07 00:13:02;;;;;;;15.35;12.95;;;16.20;99.90;;;;;;5032285;28;20658;-87
2021/09/07 00:15:28;;;;;;;15.82;12.43;;;16.20;99.90;;;;;;5029247;28;20217;-83
2021/09/07 00:17:55;;;;;;;15.80;13.32;;;16.20;99.90;;;;;;5029553;28;20230;-88
2021/09/07 00:20:23;;;;;;;17.88;14.27;;;16.20;99.90;;;;;;5034015;28;20210;-88
2021/09/07 00:22:52;;;;;;;18.50;14.13;;;16.20;99.90;;;;;;5033898;28;20293;-87
2021/09/07 00:25:19;;;;;;;15.83;13.20;;;16.10;99.90;;;;;;5034673;28;20199;-87
2021/09/07 00:27:45;;;;;;;17.35;13.75;;;16.10;99.90;;;;;;5047779;28;20205;-86
2021/09/07 00:30:13;;;;;;;18.77;14.27;;;16.10;99.90;;;;;;5054334;28;20197;-88
2021/09/07 00:32:40;;;;;;;17.77;14.83;;;16.10;99.90;;;;;;5053602;28;20202;-87
2021/09/07 00:35:11;;;;;;;17.80;14.63;;;16.10;99.90;;;;;;5048754;28;20210;-87
2021/09/07 00:37:38;;;;;;;19.95;14.05;;;16.10;99.90;;;;;;5033629;28;20238;-87
2021/09/07 00:40:08;;;;;;;18.10;14.73;;;16.10;99.90;;;;;;5033376;28;20626;-87
2021/09/07 00:42:36;;;;;;;22.23;15.05;;;16.10;99.90;;;;;;5033580;28;20265;-87
2021/09/07 00:45:04;;;;;;;17.30;14.40;;;16.00;99.90;;;;;;5072213;22;20961;-87
2021/09/07 00:47:31;;;;;;;16.33;13.60;;;16.00;99.90;;;;;;5073572;28;20205;-86
2021/09/07 00:49:58;;;;;;;16.73;13.48;;;16.00;99.90;;;;;;5072561;28;20217;-86
2021/09/07 00:52:25;;;;;;;17.83;14.57;;;16.00;99.90;;;;;;5074471;28;20197;-88
2021/09/07 00:54:53;;;;;;;18.42;14.88;;;15.90;99.90;;;;;;5093219;28;20197;-87
2021/09/07 00:57:24;;;;;;;18.07;14.03;;;15.90;99.90;;;;;;5094010;28;20239;-89
2021/09/07 00:59:52;;;;;;;18.37;14.47;;;15.90;99.90;;;;;;5090795;28;20508;-86
2021/09/07 01:02:19;;;;;;;17.17;13.97;;;15.90;99.90;;;;;;5093114;28;20209;-87
2021/09/07 01:04:47;;;;;;;20.17;14.45;;;15.90;99.90;;;;;;5081232;28;20502;-86
2021/09/07 01:07:14;;;;;;;20.30;15.73;;;15.80;99.90;;;;;;5073071;28;20197;-88
2021/09/07 01:09:41;;;;;;;21.20;16.17;;;15.80;99.90;;;;;;5072924;28;20221;-88
2021/09/07 01:12:09;;;;;;;20.90;15.68;;;15.80;99.90;;;;;;5067619;28;20216;-87
2021/09/07 01:14:39;;;;;;;20.17;15.90;;;15.70;99.90;;;;;;5052986;28;20233;-88
2021/09/07 01:17:12;;;;;;;20.52;15.98;;;15.80;99.90;;;;;;5052556;28;20221;-88
2021/09/07 01:19:39;;;;;;;17.95;14.57;;;15.70;99.90;;;;;;5053107;28;20722;-87
2021/09/07 01:22:06;;;;;;;18.90;14.33;;;15.70;99.90;;;;;;5052468;28;20193;-88
2021/09/07 01:24:35;;;;;;;17.98;14.70;;;15.70;99.90;;;;;;5052543;28;20189;-88
2021/09/07 01:27:05;;;;;;;17.83;14.73;;;15.60;99.90;;;;;;5053359;28;20294;-88
2021/09/07 01:29:33;;;;;;;19.83;15.30;;;15.60;99.90;;;;;;5052621;28;20205;-87
2021/09/07 01:32:00;;;;;;;19.40;15.03;;;15.60;99.90;;;;;;5052437;28;20599;-87
2021/09/07 01:34:27;;;;;;;16.10;13.23;;;15.60;99.90;;;;;;5070611;28;20213;-85
2021/09/07 01:36:54;;;;;;;19.33;14.77;;;15.60;99.90;;;;;;5071382;28;20626;-88
2021/09/07 01:39:21;;;;;;;19.30;15.15;;;15.50;99.90;;;;;;5071749;28;20193;-84
2021/09/07 01:41:50;;;;;;;20.03;15.27;;;15.50;99.90;;;;;;5071393;28;20201;-88
2021/09/07 01:44:18;;;;;;;18.80;15.37;;;15.50;99.90;;;;;;5072320;28;20323;-87
2021/09/07 01:46:45;;;;;;;16.58;14.15;;;15.50;99.90;;;;;;5071391;28;20532;-88
2021/09/07 01:49:13;;;;;;;16.77;13.93;;;15.50;99.90;;;;;;5071634;28;20288;-88
2021/09/07 01:51:41;;;;;;;18.03;14.43;;;15.40;99.90;;;;;;5071525;28;20205;-87
2021/09/07 01:54:09;;;;;;;18.63;14.97;;;15.40;99.90;;;;;;5071600;28;20206;-85
2021/09/07 01:56:37;;;;;;;22.07;16.70;;;15.40;99.90;;;;;;5057765;28;20199;-84
2021/09/07 01:59:05;;;;;;;22.00;16.00;;;15.40;99.90;;;;;;5030847;28;20599;-87
2021/09/07 02:01:32;;;;;;;19.58;15.43;;;15.40;99.90;;;;;;5036168;28;20217;-84
2021/09/07 02:03:59;;;;;;;19.30;14.87;;;15.40;99.90;;;;;;5051608;28;20198;-85
2021/09/07 02:06:26;;;;;;;19.97;15.47;;;15.40;99.90;;;;;;5051550;28;20210;-87
2021/09/07 02:08:53;;;;;;;16.53;14.20;;;15.30;99.90;;;;;;5050917;28;20630;-88
2021/09/07 02:11:19;;;;;;;18.33;15.37;;;15.30;99.90;;;;;;5049921;28;20212;-86
2021/09/07 02:13:46;;;;;;;17.30;13.57;;;15.30;99.90;;;;;;5050596;28;20194;-83
2021/09/07 02:16:14;;;;;;;17.27;14.07;;;15.30;99.90;;;;;;5051476;28;20213;-85
2021/09/07 02:18:41;;;;;;;16.35;13.52;;;15.20;99.90;;;;;;5050910;28;20236;-83
2021/09/07 02:21:08;;;;;;;17.63;13.90;;;15.20;99.90;;;;;;5050775;28;20209;-84
2021/09/07 02:23:35;;;;;;;16.23;13.17;;;15.20;99.90;;;;;;5050947;28;20190;-87
2021/09/07 02:26:02;;;;;;;19.87;14.80;;;15.20;99.90;;;;;;5051131;28;20615;-86
2021/09/07 02:28:29;;;;;;;17.50;13.40;;;15.10;99.90;;;;;;5057185;28;20215;-87
2021/09/07 02:30:56;;;;;;;17.33;13.57;;;15.10;99.90;;;;;;5049818;28;20508;-88
2021/09/07 02:33:24;;;;;;;19.47;15.07;;;15.10;99.90;;;;;;5050315;28;20606;-88
2021/09/07 02:35:50;;;;;;;20.40;14.40;;;15.10;99.90;;;;;;5050279;28;20224;-86
2021/09/07 02:38:17;;;;;;;17.37;14.53;;;15.10;99.90;;;;;;5050743;28;20524;-83
2021/09/07 02:40:44;;;;;;;17.17;13.40;;;15.00;99.90;;;;;;5048812;28;20190;-82
2021/09/07 02:43:11;;;;;;;16.92;14.07;;;15.10;99.90;;;;;;5060371;28;20511;-84
2021/09/07 02:45:38;;;;;;;16.80;13.53;;;15.00;99.90;;;;;;5070009;28;20930;-81
2021/09/07 02:48:05;;;;;;;18.00;14.03;;;15.00;99.90;;;;;;5066176;28;20204;-88
2021/09/07 02:50:34;;;;;;;18.80;13.80;;;15.00;99.90;;;;;;5056659;28;20209;-85
2021/09/07 02:53:00;;;;;;;17.80;13.47;;;14.90;99.90;;;;;;5051365;28;20705;-85
2021/09/07 02:55:27;;;;;;;17.20;13.77;;;14.90;99.90;;;;;;5051288;28;20198;-85
2021/09/07 02:57:54;;;;;;;18.33;14.57;;;14.90;99.90;;;;;;5059973;28;20228;-86
2021/09/07 03:00:21;;;;;;;17.87;13.93;;;14.90;99.90;;;;;;5069203;28;20205;-84
2021/09/07 03:02:47;;;;;;;19.00;14.83;;;14.90;99.90;;;;;;5051091;28;20202;-86
2021/09/07 03:05:14;;;;;;;16.03;12.60;;;14.90;99.90;;;;;;5051416;28;20198;-87
2021/09/07 03:07:42;;;;;;;16.63;14.13;;;14.90;99.90;;;;;;5050541;28;20862;-87
2021/09/07 03:10:10;;;;;;;19.50;15.17;;;14.90;99.90;;;;;;5050574;28;20230;-86
2021/09/07 03:12:37;;;;;;;16.03;13.50;;;14.90;99.90;;;;;;5050305;28;20220;-86
2021/09/07 03:15:04;;;;;;;16.10;13.40;;;14.90;99.90;;;;;;5050450;28;20641;-87
2021/09/07 03:17:31;;;;;;;16.63;12.40;;;14.80;99.90;;;;;;5050980;28;20228;-87
2021/09/07 03:19:58;;;;;;;16.13;12.97;;;14.80;99.90;;;;;;5033176;28;20712;-85
2021/09/07 03:22:25;;;;;;;15.53;12.67;;;14.80;99.90;;;;;;5050924;28;20205;-87
2021/09/07 03:24:53;;;;;;;16.37;12.70;;;14.80;99.90;;;;;;5048726;28;20217;-86
2021/09/07 03:27:19;;;;;;;16.42;13.00;;;14.80;99.90;;;;;;5048280;28;20202;-86
2021/09/07 03:29:46;;;;;;;15.70;12.90;;;14.80;99.90;;;;;;5047918;28;20256;-86
2021/09/07 03:32:13;;;;;;;17.53;12.97;;;14.80;99.90;;;;;;5048299;28;20213;-86
2021/09/07 03:34:40;;;;;;;18.57;14.23;;;14.80;99.90;;;;;;5030125;28;20218;-86
2021/09/07 03:37:07;;;;;;;17.63;13.87;;;14.80;99.90;;;;;;5038311;28;20209;-86
2021/09/07 03:39:33;;;;;;;15.80;12.67;;;14.70;99.90;;;;;;5050394;28;20216;-83
2021/09/07 03:42:01;;;;;;;18.53;13.83;;;14.70;99.90;;;;;;5050828;28;20206;-87
2021/09/07 03:44:28;;;;;;;16.47;13.30;;;14.70;99.90;;;;;;5051116;28;20241;-85
2021/09/07 03:46:55;;;;;;;17.27;13.97;;;14.70;99.90;;;;;;5050550;28;20210;-86
2021/09/07 03:49:22;;;;;;;17.20;13.23;;;14.70;99.90;;;;;;5069268;28;20205;-85
2021/09/07 03:51:49;;;;;;;17.70;13.77;;;14.70;99.90;;;;;;5071351;28;20235;-84
2021/09/07 03:54:16;;;;;;;16.70;13.83;;;14.60;99.90;;;;;;5054123;28;20209;-85
2021/09/07 03:56:42;;;;;;;18.77;14.47;;;14.60;99.90;;;;;;5051431;28;20233;-85
2021/09/07 03:59:10;;;;;;;17.00;14.30;;;14.60;99.90;;;;;;5051209;28;20233;-86
2021/09/07 04:01:37;;;;;;;19.13;14.30;;;14.60;99.90;;;;;;5033228;28;20202;-82
2021/09/07 04:04:04;;;;;;;18.40;13.97;;;14.60;99.90;;;;;;5050958;28;20598;-85
2021/09/07 04:06:31;;;;;;;20.53;15.93;;;14.60;99.90;;;;;;5041476;28;20288;-85
2021/09/07 04:08:58;;;;;;;19.47;15.23;;;14.60;99.90;;;;;;5030288;28;20230;-84
2021/09/07 04:11:25;;;;;;;19.17;15.83;;;14.60;99.90;;;;;;5028853;28;20199;-83
2021/09/07 04:13:51;;;;;;;19.67;15.73;;;14.60;99.90;;;;;;5028672;28;20225;-85
2021/09/07 04:16:19;;;;;;;18.80;14.53;;;14.70;99.90;;;;;;5038507;28;20212;-85
2021/09/07 04:18:46;;;;;;;18.83;15.67;;;14.70;99.90;;;;;;5040953;28;20255;-86
2021/09/07 04:21:13;;;;;;;19.50;15.07;;;14.70;99.90;;;;;;5043622;28;20205;-86
2021/09/07 04:23:40;;;;;;;17.67;14.37;;;14.70;99.90;;;;;;5057406;28;20229;-84
2021/09/07 04:26:07;;;;;;;18.73;14.23;;;14.80;99.90;;;;;;5056135;28;20201;-82
2021/09/07 04:28:33;;;;;;;19.67;15.73;;;14.80;99.90;;;;;;5069151;28;20201;-82
2021/09/07 04:31:00;;;;;;;17.57;14.23;;;14.80;99.90;;;;;;5068488;28;20205;-81
2021/09/07 04:33:29;;;;;;;17.33;13.93;;;14.80;99.90;;;;;;5051484;28;20845;-83
2021/09/07 04:35:55;;;;;;;18.17;14.20;;;14.80;99.90;;;;;;5048232;28;20213;-84
2021/09/07 04:38:22;;;;;;;16.50;13.23;;;14.80;99.90;;;;;;5050013;28;20225;-84
2021/09/07 04:40:49;;;;;;;16.23;13.67;;;14.90;99.90;;;;;;5051829;28;20213;-84
2021/09/07 04:43:16;;;;;;;17.10;13.47;;;14.90;99.90;;;;;;5063877;28;20711;-86
2021/09/07 04:45:43;;;;;;;18.47;14.23;;;14.90;99.90;;;;;;5058323;28;20800;-86
2021/09/07 04:48:10;;;;;;;17.67;14.20;;;14.90;99.90;;;;;;5051479;28;20205;-83
2021/09/07 04:50:38;;;;;;;19.97;15.90;;;14.90;99.90;;;;;;5050441;28;20233;-84
2021/09/07 04:53:05;;;;;;;21.60;16.73;;;15.00;99.90;;;;;;5050256;28;20210;-81
2021/09/07 04:55:32;;;;;;;20.07;15.77;;;15.00;99.90;;;;;;5050760;28;20520;-82
2021/09/07 04:57:59;;;;;;;20.53;15.53;;;15.00;99.90;;;;;;5051402;28;20535;-83
2021/09/07 05:00:25;;;;;;;19.77;15.73;;;15.00;99.90;;;;;;5051494;28;20609;-83
2021/09/07 05:02:52;;;;;;;21.57;15.63;;;15.10;99.90;;;;;;5051181;28;20202;-86
2021/09/07 05:05:19;;;;;;;20.70;15.57;;;15.10;99.90;;;;;;5051257;28;20209;-86
2021/09/07 05:07:47;;;;;;;21.60;15.97;;;15.10;99.90;;;;;;5049553;28;20194;-86
2021/09/07 05:10:14;;;;;;;18.83;14.00;;;15.10;99.90;;;;;;5051072;28;20240;-83
2021/09/07 05:12:41;;;;;;;18.87;15.00;;;15.20;99.90;;;;;;5051935;28;20217;-82
2021/09/07 05:15:08;;;;;;;19.43;15.57;;;15.20;99.90;;;;;;5050467;28;20205;-81
2021/09/07 05:17:35;;;;;;;20.87;16.20;;;15.20;99.90;;;;;;5050549;28;20206;-84
2021/09/07 05:20:02;;;;;;;19.50;15.63;;;15.20;99.90;;;;;;5047982;28;20279;-83
2021/09/07 05:22:30;;;;;;;19.43;14.97;;;15.30;99.90;;;;;;5048107;28;20209;-87
2021/09/07 05:24:58;;;;;;;21.80;17.00;;;15.30;99.90;;;;;;5039782;28;20284;-86
2021/09/07 05:27:24;;;;;;;19.07;15.10;;;15.30;99.90;;;;;;5033062;28;20213;-86
2021/09/07 05:29:51;;;;;;;17.77;14.03;;;15.40;99.90;;;;;;5032870;28;20233;-84
2021/09/07 05:32:21;;;;;;;17.77;14.33;;;15.40;99.90;;;;;;5032377;28;20205;-86
2021/09/07 05:34:48;;;;;;;18.20;14.80;;;15.40;99.90;;;;;;5047325;28;20202;-87
2021/09/07 05:37:15;;;;;;;19.37;15.23;;;15.40;99.90;;;;;;5052121;28;20860;-87
2021/09/07 05:39:42;;;;;;;16.50;13.90;;;15.50;99.90;;;;;;5060554;28;20235;-86
2021/09/07 05:42:10;;;;;;;19.73;14.13;;;15.50;99.90;;;;;;5072343;28;20512;-86
2021/09/07 05:44:36;;;;;;;18.10;14.13;;;15.60;99.90;;;;;;5072058;28;20573;-86
2021/09/07 05:47:05;;;;;;;17.13;14.20;;;15.60;99.90;;;;;;5071838;28;20328;-86
2021/09/07 05:49:32;;;;;;;19.05;14.88;;;15.60;99.90;;;;;;5071460;28;20202;-85
2021/09/07 05:51:59;;;;;;;20.33;15.50;;;15.70;99.90;;;;;;5069931;28;20664;-87
2021/09/07 05:54:26;;;;;;;22.00;15.00;;;15.70;99.90;;;;;;5052159;28;20210;-87
2021/09/07 05:56:54;;;;;;;17.87;15.07;;;15.80;99.90;;;;;;5051672;28;20206;-84
2021/09/07 05:59:22;;;;;;;20.37;16.13;;;15.80;99.90;;;;;;5051746;28;20233;-84
2021/09/07 06:01:49;;;;;;;22.17;17.60;;;15.80;99.90;;;;;;5051232;28;20209;-84
2021/09/07 06:04:16;;;;;;;24.23;18.10;;;15.90;99.90;;;;;;5069943;28;21032;-87
2021/09/07 06:06:43;;;;;;;25.73;18.03;;;15.90;99.90;;;;;;5070828;28;20197;-83
2021/09/07 06:09:09;;;;;;;23.33;17.73;;;16.00;99.90;;;;;;5070142;28;20225;-83
2021/09/07 06:11:38;;;;;;;28.03;19.83;;;16.00;99.90;;;;;;5070094;28;20201;-85
2021/09/07 06:14:05;;;;;;;23.77;18.63;;;16.10;99.90;;;;;;5070591;28;20511;-87
2021/09/07 06:16:33;;;;;;;24.55;17.60;;;16.10;99.90;;;;;;5070715;28;20198;-86
2021/09/07 06:19:00;;;;;;;27.33;19.05;;;16.20;99.90;;;;;;5068087;28;20231;-84
2021/09/07 06:21:27;;;;;;;25.10;18.80;;;16.30;99.90;;;;;;5069949;28;20205;-80
2021/09/07 06:23:54;;;;;;;26.42;20.05;;;16.30;99.90;;;;;;5052262;28;20526;-84
2021/09/07 06:26:21;;;;;;;26.50;18.85;;;16.40;99.90;;;;;;5031901;28;20911;-83
2021/09/07 06:28:47;;;;;;;31.83;20.52;;;16.50;99.90;;;;;;5028729;28;20622;-82
2021/09/07 06:31:14;;;;;;;35.13;23.55;;;16.50;99.90;;;;;;5030011;28;20210;-86
2021/09/07 06:33:42;;;;;;;30.10;20.42;;;16.60;99.90;;;;;;5045422;28;20205;-87
2021/09/07 06:36:09;;;;;;;33.30;22.95;;;16.60;99.90;;;;;;5070236;28;20201;-88
2021/09/07 06:38:36;;;;;;;26.98;20.50;;;16.70;99.90;;;;;;5036299;28;20253;-83
2021/09/07 06:41:07;;;;;;;24.38;18.45;;;16.80;99.90;;;;;;5029938;28;20211;-81
2021/09/07 06:43:34;;;;;;;24.20;18.88;;;16.80;99.90;;;;;;5030172;28;20236;-85
2021/09/07 06:46:00;;;;;;;27.48;20.13;;;16.90;99.90;;;;;;5044569;28;20485;-84
2021/09/07 06:48:27;;;;;;;27.63;21.02;;;17.00;99.90;;;;;;5049577;28;20582;-82
2021/09/07 06:50:56;;;;;;;27.13;20.20;;;17.10;99.90;;;;;;5048347;28;20209;-87
2021/09/07 06:53:22;;;;;;;26.48;20.08;;;17.20;99.90;;;;;;5051007;28;20205;-87
2021/09/07 06:55:49;;;;;;;31.70;22.38;;;17.30;99.90;;;;;;5051132;28;20209;-87
2021/09/07 06:58:16;;;;;;;36.40;24.65;;;17.40;99.90;;;;;;5068745;28;20539;-86
2021/09/07 07:00:43;;;;;;;39.80;26.95;;;17.40;99.90;;;;;;5065739;28;20216;-87
2021/09/07 07:03:10;;;;;;;36.92;25.90;;;17.50;99.90;;;;;;5031522;28;20210;-87
2021/09/07 07:05:37;;;;;;;34.30;24.63;;;17.50;99.90;;;;;;5030784;28;20202;-85
2021/09/07 07:08:05;;;;;;;29.70;23.23;;;17.60;99.90;;;;;;5039272;28;20645;-86
2021/09/07 07:10:32;;;;;;;30.50;22.05;;;17.70;99.90;;;;;;5050355;28;20230;-87
2021/09/07 07:12:59;;;;;;;35.25;24.40;;;17.80;99.90;;;;;;5067800;28;20589;-88
2021/09/07 07:15:26;;;;;;;35.80;23.70;;;17.90;99.90;;;;;;5070385;28;20217;-86
2021/09/07 07:17:53;;;;;;;28.38;21.65;;;17.90;99.90;;;;;;5070327;28;20220;-88
2021/09/07 07:20:19;;;;;;;27.52;20.73;;;18.00;99.90;;;;;;5069930;28;20225;-87
2021/09/07 07:22:46;;;;;;;29.33;20.80;;;18.10;99.90;;;;;;5069427;28;20197;-86
2021/09/07 07:25:14;;;;;;;27.33;19.70;;;18.10;99.90;;;;;;5070147;28;20209;-85
2021/09/07 07:27:43;;;;;;;32.35;22.35;;;18.20;99.90;;;;;;5067013;28;20275;-86
2021/09/07 07:30:11;;;;;;;33.97;24.38;;;18.30;99.90;;;;;;5041289;28;20202;-82
2021/09/07 07:32:38;;;;;;;27.08;21.00;;;18.30;99.90;;;;;;5050395;28;20206;-87
2021/09/07 07:35:06;;;;;;;27.20;20.30;;;18.40;99.90;;;;;;5049962;28;20212;-86
2021/09/07 07:37:33;;;;;;;26.27;19.95;;;18.50;99.90;;;;;;5058768;28;20197;-88
2021/09/07 07:40:07;;;;;;;27.77;22.65;;;18.60;99.90;;;;;;5070491;28;20233;-88
2021/09/07 07:42:36;;;;;;;33.47;23.40;;;18.70;99.90;;;;;;5070632;28;20250;-86
2021/09/07 07:45:03;;;;;;;26.63;20.67;;;18.80;99.90;;;;;;5051217;28;20628;-86
2021/09/07 07:47:30;;;;;;;30.75;24.10;;;18.90;99.90;;;;;;5050097;28;20202;-86
2021/09/07 07:49:56;;;;;;;29.15;23.08;;;19.00;99.90;;;;;;5049583;28;20202;-89
2021/09/07 07:52:23;;;;;;;24.60;19.92;;;19.20;99.90;;;;;;5047481;28;20206;-87
2021/09/07 07:54:50;;;;;;;27.67;20.75;;;19.30;99.90;;;;;;5045615;28;20218;-87
2021/09/07 07:57:18;;;;;;;23.50;18.45;;;19.50;99.90;;;;;;5042826;28;20202;-87
2021/09/07 07:59:46;;;;;;;21.75;17.33;;;19.60;99.90;;;;;;5030071;28;20223;-87
2021/09/07 08:02:13;;;;;;;25.52;19.80;;;19.90;99.90;;;;;;5031100;28;20260;-87
2021/09/07 08:04:40;;;;;;;27.02;21.75;;;20.10;99.90;;;;;;5030390;28;20195;-87
2021/09/07 08:07:07;;;;;;;26.73;20.42;;;20.30;99.90;;;;;;5029797;28;20549;-86
2021/09/07 08:09:34;;;;;;;21.23;17.80;;;20.60;99.90;;;;;;5038413;28;20518;-85
2021/09/07 08:12:01;;;;;;;22.35;17.35;;;20.80;99.90;;;;;;5050909;28;20206;-86
2021/09/07 08:14:28;;;;;;;24.48;18.48;;;21.00;99.90;;;;;;5053899;28;20214;-86
2021/09/07 08:16:56;;;;;;;19.17;15.27;;;21.10;99.90;;;;;;5053131;28;20209;-87
2021/09/07 08:19:23;;;;;;;19.98;16.83;;;21.20;99.90;;;;;;5053776;28;20230;-86
2021/09/07 08:21:50;;;;;;;21.30;16.02;;;21.40;99.90;;;;;;5062295;28;20205;-85
2021/09/07 08:24:16;;;;;;;22.00;17.30;;;21.60;99.90;;;;;;5073587;28;20201;-86
2021/09/07 08:26:43;;;;;;;23.08;17.27;;;21.80;99.90;;;;;;5037760;28;20206;-86
2021/09/07 08:29:10;;;;;;;27.40;19.15;;;22.10;99.90;;;;;;5033391;28;20599;-87
2021/09/07 08:31:36;;;;;;;23.35;18.17;;;22.30;99.90;;;;;;5048362;28;20197;-84
2021/09/07 08:34:05;;;;;;;22.80;16.83;;;22.60;99.90;;;;;;5057175;28;20542;-85
2021/09/07 08:36:34;;;;;;;18.90;15.23;;;22.80;99.90;;;;;;5053005;28;20212;-86
2021/09/07 08:39:04;;;;;;;23.85;17.15;;;23.20;99.90;;;;;;5055764;28;20224;-86
2021/09/07 08:41:30;;;;;;;19.10;15.77;;;23.50;99.90;;;;;;5072830;28;20293;-87
2021/09/07 08:43:57;;;;;;;18.98;16.42;;;23.60;99.90;;;;;;5067416;28;20238;-86
2021/09/07 08:46:26;;;;;;;20.65;15.95;;;23.70;99.90;;;;;;5051708;28;20625;-85
2021/09/07 08:48:53;;;;;;;15.40;13.65;;;23.70;99.90;;;;;;5055985;28;20209;-86
2021/09/07 08:51:22;;;;;;;18.65;15.65;;;23.70;99.90;;;;;;5058112;28;20777;-86
2021/09/07 08:53:49;;;;;;;15.75;13.77;;;23.70;99.90;;;;;;5051276;28;20202;-87
2021/09/07 08:56:17;;;;;;;21.50;16.92;;;23.70;99.90;;;;;;5051738;28;20288;-85
2021/09/07 08:58:43;;;;;;;16.38;14.48;;;23.70;99.90;;;;;;5051041;28;20205;-84
2021/09/07 09:01:12;;;;;;;18.70;14.38;;;23.80;99.90;;;;;;5051483;28;20194;-83
2021/09/07 09:03:41;;;;;;;18.10;14.27;;;23.90;99.90;;;;;;5052624;28;20230;-86
2021/09/07 09:06:08;;;;;;;18.27;15.77;;;24.10;99.90;;;;;;5051641;28;20245;-85
2021/09/07 09:08:37;;;;;;;22.67;15.60;;;24.30;99.90;;;;;;5071936;22;20235;-87
2021/09/07 09:11:06;;;;;;;21.42;15.15;;;24.30;99.90;;;;;;5073028;28;20197;-87
2021/09/07 09:13:44;;;;;;;21.48;14.75;;;24.40;99.90;;;;;;5073876;28;20221;-87
2021/09/07 09:16:12;;;;;;;50.22;17.67;;;24.50;99.90;;;;;;5074202;28;20197;-87
2021/09/07 09:18:41;;;;;;;23.15;15.07;;;24.70;99.90;;;;;;5073633;28;20220;-88
2021/09/07 09:21:28;;;;;;;14.13;12.13;;;24.80;99.90;;;;;;5074073;28;20212;-88
2021/09/07 09:24:26;;;;;;;17.92;15.23;;;25.10;99.90;;;;;;5073317;28;20207;-87
2021/09/07 09:26:58;;;;;;;18.45;13.07;;;25.30;99.90;;;;;;5074482;28;20213;-86
2021/09/07 09:29:27;;;;;;;16.50;13.50;;;25.50;99.90;;;;;;5074072;28;20251;-87
2021/09/07 09:31:56;;;;;;;16.55;14.18;;;25.70;99.90;;;;;;5073781;28;20262;-87
2021/09/07 09:34:24;;;;;;;13.75;11.85;;;25.80;99.90;;;;;;5086473;28;20197;-86
2021/09/07 09:37:02;;;;;;;19.17;15.45;;;26.00;99.90;;;;;;5078610;28;20210;-86
2021/09/07 09:39:42;;;;;;;15.85;13.02;;;26.10;99.90;;;;;;5053194;28;20300;-87
2021/09/07 09:42:10;;;;;;;13.15;11.75;;;26.20;99.90;;;;;;5064254;28;20216;-87
2021/09/07 09:44:37;;;;;;;15.88;13.27;;;26.50;99.90;;;;;;5073617;28;20259;-90
2021/09/07 09:47:05;;;;;;;15.82;12.77;;;26.70;99.90;;;;;;5081601;28;20197;-91
2021/09/07 09:49:33;;;;;;;24.63;16.33;;;26.70;99.90;;;;;;5077479;28;20199;-89
2021/09/07 09:52:03;;;;;;;19.90;15.00;;;26.80;99.90;;;;;;5076264;28;20205;-94
2021/09/07 09:54:32;;;;;;;19.35;15.70;;;26.90;99.90;;;;;;5072885;28;20205;-89
2021/09/07 09:57:02;;;;;;;15.07;12.30;;;27.10;99.90;;;;;;5082784;28;20300;-89
2021/09/07 09:59:29;;;;;;;17.33;13.85;;;27.20;99.90;;;;;;5083760;28;20209;-92
2021/09/07 10:01:57;;;;;;;17.17;14.68;;;27.40;99.90;;;;;;5081439;28;20212;-91
2021/09/07 10:04:25;;;;;;;13.80;10.80;;;27.40;99.90;;;;;;5059849;28;20202;-89
2021/09/07 10:06:53;;;;;;;16.70;13.05;;;27.50;99.90;;;;;;5068890;28;20208;-90
2021/09/07 10:09:21;;;;;;;19.30;16.83;;;27.60;99.90;;;;;;5070228;28;20283;-89
2021/09/07 10:11:53;;;;;;;15.43;12.80;;;27.40;99.90;;;;;;5053588;28;20505;-92
2021/09/07 10:14:26;;;;;;;17.42;14.23;;;27.50;99.90;;;;;;5050684;28;20286;-90
2021/09/07 10:17:25;;;;;;;17.23;13.48;;;27.70;99.90;;;;;;5051725;28;20859;-90
2021/09/07 10:20:00;;;;;;;18.40;14.25;;;27.90;99.90;;;;;;5051716;28;20312;-87
2021/09/07 10:25:51;;;;;;;23.67;18.27;;;28.00;99.90;;;;;;5052712;28;20185;-88
2021/09/07 10:28:33;;;;;;;23.17;17.45;;;27.80;99.90;;;;;;5051786;28;20210;-93
2021/09/07 10:31:07;;;;;;;19.38;15.40;;;27.80;99.90;;;;;;5054620;28;20922;-94
2021/09/07 10:33:37;;;;;;;16.88;14.27;;;27.80;99.90;;;;;;5078016;28;20197;-90
2021/09/07 10:36:09;;;;;;;19.77;16.20;;;28.00;99.90;;;;;;5072443;28;20209;-95
2021/09/07 10:38:38;;;;;;;14.63;12.63;;;28.20;99.90;;;;;;5071055;28;20193;-92
2021/09/07 10:41:05;;;;;;;21.50;17.95;;;28.20;99.90;;;;;;5071619;28;20224;-94
2021/09/07 10:43:55;;;;;;;24.83;19.65;;;28.10;99.90;;;;;;5071416;28;20240;-92
2021/09/07 10:46:46;;;;;;;18.60;16.08;;;27.70;99.90;;;;;;5071744;28;20577;-91
2021/09/07 10:49:25;;;;;;;18.13;14.35;;;27.70;99.90;;;;;;5071621;28;20209;-94
2021/09/07 10:52:18;;;;;;;22.17;17.40;;;28.00;99.90;;;;;;5070373;28;20196;-89
2021/09/07 10:54:50;;;;;;;17.20;13.48;;;28.00;99.90;;;;;;5058337;28;20197;-92
2021/09/07 10:57:53;;;;;;;12.88;11.40;;;28.30;99.90;;;;;;5071809;28;20201;-94
2021/09/07 11:00:40;;;;;;;20.58;16.67;;;28.60;99.90;;;;;;5071134;28;20251;-95
2021/09/07 11:03:10;;;;;;;20.60;18.40;;;28.60;99.90;;;;;;5071558;28;20547;-94
2021/09/07 11:05:42;;;;;;;19.52;16.77;;;28.60;99.90;;;;;;5071319;28;20190;-94
2021/09/07 11:08:11;;;;;;;16.40;14.65;;;28.70;99.90;;;;;;5071408;28;20249;-89
2021/09/07 11:10:40;;;;;;;17.48;14.35;;;28.90;99.90;;;;;;5070409;28;20205;-87
2021/09/07 11:13:08;;;;;;;19.33;17.02;;;29.10;99.90;;;;;;5070771;28;20205;-92
2021/09/07 11:15:37;;;;;;;14.77;12.93;;;29.20;99.90;;;;;;5070550;28;20211;-90
2021/09/07 11:18:06;;;;;;;17.63;15.18;;;29.40;99.90;;;;;;5070751;28;20213;-92
2021/09/07 11:20:37;;;;;;;15.82;12.07;;;29.40;99.90;;;;;;5065737;28;20229;-84
2021/09/07 11:23:12;;;;;;;23.55;19.73;;;29.50;99.90;;;;;;5049813;28;20608;-93
2021/09/07 11:25:40;;;;;;;14.68;13.15;;;29.50;99.90;;;;;;5051419;28;20615;-89
2021/09/07 11:28:10;;;;;;;15.68;14.00;;;29.60;99.90;;;;;;5047166;28;20212;-93
2021/09/07 11:30:38;;;;;;;20.42;15.70;;;29.50;99.90;;;;;;5056974;28;20209;-91
2021/09/07 11:33:08;;;;;;;15.02;12.23;;;29.60;99.90;;;;;;5067346;28;20225;-92
2021/09/07 11:35:40;;;;;;;11.85;10.55;;;29.80;99.90;;;;;;5062479;28;20199;-93
2021/09/07 11:38:08;;;;;;;16.42;14.80;;;30.00;99.90;;;;;;5050460;28;20259;-89
2021/09/07 11:40:37;;;;;;;11.43;10.25;;;29.70;99.90;;;;;;5049271;28;20296;-89
2021/09/07 11:43:04;;;;;;;14.25;11.52;;;29.90;99.90;;;;;;5048825;28;20224;-91
2021/09/07 11:45:32;;;;;;;13.13;11.73;;;30.00;99.90;;;;;;5064255;28;20220;-90
2021/09/07 11:48:00;;;;;;;12.48;11.07;;;30.00;99.90;;;;;;5069971;28;20220;-92
2021/09/07 11:50:29;;;;;;;13.15;9.82;;;30.20;99.90;;;;;;5072768;28;20216;-91
2021/09/07 11:52:59;;;;;;;13.68;11.75;;;30.30;99.90;;;;;;5073254;28;20224;-89
2021/09/07 11:55:50;;;;;;;14.85;13.30;;;30.30;99.90;;;;;;5072878;28;20212;-90
2021/09/07 11:58:31;;;;;;;14.38;12.10;;;30.00;99.90;;;;;;5073581;28;20201;-91
2021/09/07 12:01:09;;;;;;;16.48;14.10;;;30.00;99.90;;;;;;5073577;28;20228;-91
2021/09/07 12:03:39;;;;;;;18.20;13.90;;;30.30;99.90;;;;;;5074051;28;20213;-87
2021/09/07 12:06:07;;;;;;;16.42;14.35;;;30.20;99.90;;;;;;5073097;28;20213;-88
2021/09/07 12:08:44;;;;;;;16.17;14.40;;;30.00;99.90;;;;;;5071592;28;20665;-89
2021/09/07 12:11:14;;;;;;;27.75;18.73;;;30.10;99.90;;;;;;5071784;28;20235;-87
2021/09/07 12:13:41;;;;;;;20.65;18.23;;;30.00;99.90;;;;;;5065866;28;20202;-90
2021/09/07 12:16:08;;;;;;;16.35;13.90;;;29.90;99.90;;;;;;5050932;28;20202;-88
2021/09/07 12:18:38;;;;;;;24.98;20.50;;;29.60;99.90;;;;;;5051874;28;20221;-82
2021/09/07 12:21:13;;;;;;;23.98;18.13;;;29.40;99.90;;;;;;5052354;28;20236;-88
2021/09/07 12:23:43;;;;;;;22.20;17.23;;;29.30;99.90;;;;;;5053179;28;20594;-84
2021/09/07 12:26:11;;;;;;;17.42;15.55;;;29.10;99.90;;;;;;5053199;28;20193;-84
2021/09/07 12:28:39;;;;;;;18.10;15.27;;;29.00;99.90;;;;;;5050105;28;20205;-84
2021/09/07 12:31:20;;;;;;;18.83;15.48;;;29.00;99.90;;;;;;5051723;28;20205;-85
2021/09/07 12:33:51;;;;;;;23.77;16.77;;;29.10;99.90;;;;;;5056949;28;20197;-83
2021/09/07 12:36:20;;;;;;;16.08;13.88;;;29.20;99.90;;;;;;5072958;28;20828;-86
2021/09/07 12:38:50;;;;;;;21.58;16.80;;;29.10;99.90;;;;;;5070930;28;20205;-87